This is the latest recevied weather packets stored in our database for station/object Reichnbch. If no packets are shown the sender has not sent any weather packets the latest 10 day(s).
| Time | Temp. | Humidity | Pressure | Rain* | Wind** | Luminosity | Snow |
|---|---|---|---|---|---|---|---|
| 1777977131 | 19.44° C | 68% | 1008.4 hPa | 0 mm | - | - | - |
| 1777975332 | 20.56° C | 65% | 1008.6 hPa | 0 mm | - | - | - |
| 1777973532 | 19.44° C | 72% | 1008.8 hPa | 0 mm | - | - | - |
| 1777971732 | 17.78° C | 76% | 1009.2 hPa | 0 mm | - | - | - |
| 1777969931 | 16.11° C | 76% | 1009.5 hPa | 0 mm | - | - | - |
| 1777968131 | 15.56° C | 79% | 1009.8 hPa | 0 mm | - | - | - |
| 1777966330 | 15° C | 80% | 1009.9 hPa | 0 mm | - | - | - |
| 1777964532 | 13.89° C | 82% | 1010.2 hPa | 0 mm | - | - | - |
| 1777962731 | 13.33° C | 83% | 1010.3 hPa | 0 mm | - | - | - |
| 1777960932 | 12.22° C | 83% | 1010.4 hPa | 0 mm | - | - | - |
| 1777959131 | 11.67° C | 83% | 1010.4 hPa | 0 mm | - | - | - |
| 1777957331 | 10.56° C | 83% | 1010.7 hPa | 0 mm | - | - | - |
| 1777955531 | 10.56° C | 83% | 1010.7 hPa | 0 mm | - | - | - |
| 1777953731 | 10.56° C | 84% | 1010.6 hPa | 0 mm | - | - | - |
| 1777951931 | 10.56° C | 84% | 1010.7 hPa | 0 mm | - | - | - |
| 1777950133 | 11.11° C | 84% | 1011.1 hPa | 0 mm | - | - | - |
| 1777948331 | 11.67° C | 83% | 1011.3 hPa | 0 mm | - | - | - |
| 1777946531 | 12.78° C | 82% | 1011.6 hPa | 0 mm | - | - | - |
| 1777944731 | 13.33° C | 81% | 1012.1 hPa | 0 mm | - | - | - |
| 1777942931 | 13.33° C | 81% | 1012.2 hPa | 0 mm | - | - | - |
| 1777941129 | 13.33° C | 80% | 1012.2 hPa | 0 mm | - | - | - |
| 1777939330 | 13.33° C | 81% | 1012.4 hPa | 0 mm | - | - | - |
| 1777937529 | 13.89° C | 79% | 1012.7 hPa | 0 mm | - | - | - |
| 1777935730 | 14.44° C | 76% | 1012.8 hPa | 0 mm | - | - | - |
| 1777933935 | 14.44° C | 74% | 1013 hPa | 0 mm | - | - | - |
* Rain since midnight (hover to see other rain measurements)
** Current wind speed in m/s (hover to see current wind gust speed)